createdAt,value
2019-03-18T00:05:08.000Z,16.8
2019-03-18T00:15:08.000Z,16.8
2019-03-18T00:25:08.000Z,16.7
2019-03-18T00:35:08.000Z,16.7
2019-03-18T00:45:09.000Z,16.6
2019-03-18T00:55:09.000Z,16.5
2019-03-18T01:05:09.000Z,16.4
2019-03-18T01:15:09.000Z,16.4
2019-03-18T01:25:09.000Z,16.4
2019-03-18T01:35:09.000Z,16.3
2019-03-18T01:45:09.000Z,16.5
2019-03-18T01:55:09.000Z,16.4
2019-03-18T02:05:09.000Z,16.3
2019-03-18T02:15:09.000Z,16.2
2019-03-18T02:25:09.000Z,16.2
2019-03-18T02:35:10.000Z,16.2
2019-03-18T02:45:09.000Z,16.1
2019-03-18T02:55:09.000Z,16.1
2019-03-18T03:05:09.000Z,16.1
2019-03-18T03:15:09.000Z,15.9
2019-03-18T03:25:09.000Z,16
2019-03-18T03:35:09.000Z,15.9
2019-03-18T03:45:09.000Z,15.9
2019-03-18T03:55:09.000Z,15.9
2019-03-18T04:05:09.000Z,15.8
2019-03-18T04:15:09.000Z,15.7
2019-03-18T04:25:09.000Z,15.8
2019-03-18T04:35:09.000Z,15.7
2019-03-18T04:45:09.000Z,15.7
2019-03-18T04:55:09.000Z,15.6
2019-03-18T05:05:09.000Z,15.7
2019-03-18T05:15:09.000Z,15.7
2019-03-18T05:25:09.000Z,15.6
2019-03-18T05:35:09.000Z,15.6
2019-03-18T05:45:09.000Z,16.4
2019-03-18T05:55:09.000Z,17.3
2019-03-18T06:05:10.000Z,17.6
2019-03-18T06:15:09.000Z,17.8
2019-03-18T06:25:09.000Z,18
2019-03-18T06:35:09.000Z,18.2
2019-03-18T06:45:10.000Z,18.3
2019-03-18T06:55:09.000Z,18.4
2019-03-18T07:05:09.000Z,18.5
2019-03-18T07:15:09.000Z,18.7
2019-03-18T07:25:09.000Z,19.1
2019-03-18T07:35:09.000Z,19.3
2019-03-18T07:45:09.000Z,19.4
2019-03-18T07:55:10.000Z,19.5
2019-03-18T08:05:10.000Z,19.6
2019-03-18T08:15:10.000Z,19.5
2019-03-18T08:25:10.000Z,19.6
2019-03-18T08:35:10.000Z,19.6
2019-03-18T08:45:10.000Z,19.6
2019-03-18T08:55:10.000Z,19.6
2019-03-18T09:05:10.000Z,19.7
2019-03-18T09:15:10.000Z,19.7
2019-03-18T09:25:10.000Z,19.8
2019-03-18T09:35:10.000Z,19.8
2019-03-18T09:45:10.000Z,19.8
2019-03-18T09:55:10.000Z,19.8
2019-03-18T10:05:10.000Z,19.9
2019-03-18T10:15:10.000Z,19.9
2019-03-18T10:25:10.000Z,20
2019-03-18T10:35:10.000Z,20
2019-03-18T10:45:10.000Z,20
2019-03-18T10:55:10.000Z,20
2019-03-18T11:05:10.000Z,20.1
2019-03-18T11:15:10.000Z,20.1
2019-03-18T11:25:10.000Z,20.1
2019-03-18T11:35:10.000Z,20.1
2019-03-18T11:45:10.000Z,20.1
2019-03-18T11:55:10.000Z,20.1
2019-03-18T12:05:10.000Z,20.2
2019-03-18T12:15:10.000Z,20.2
2019-03-18T12:25:10.000Z,20.2
2019-03-18T12:35:11.000Z,20.4
2019-03-18T12:45:10.000Z,20.4
2019-03-18T12:55:10.000Z,20.5
2019-03-18T13:05:10.000Z,20.5
2019-03-18T13:25:10.000Z,20.5
2019-03-18T13:35:10.000Z,20.6
2019-03-18T13:45:10.000Z,20.6
2019-03-18T13:55:10.000Z,20.6
2019-03-18T14:05:11.000Z,20.6
2019-03-18T14:15:10.000Z,20.5
2019-03-18T14:25:10.000Z,20.5
2019-03-18T14:35:10.000Z,20.6
2019-03-18T14:45:11.000Z,20.6
2019-03-18T14:55:11.000Z,20.6
2019-03-18T15:05:11.000Z,20.6
2019-03-18T15:15:11.000Z,20.7
2019-03-18T15:25:11.000Z,20.7
2019-03-18T15:35:11.000Z,20.7
2019-03-18T15:45:11.000Z,20.7
2019-03-18T15:55:11.000Z,20.7
2019-03-18T16:05:11.000Z,20.7
2019-03-18T16:15:11.000Z,20.8
2019-03-18T16:25:11.000Z,20.8
2019-03-18T16:35:11.000Z,20.7
2019-03-18T16:45:11.000Z,20.7
2019-03-18T16:55:11.000Z,20.8
2019-03-18T17:05:11.000Z,20.9
2019-03-18T17:15:11.000Z,20.8
2019-03-18T17:25:11.000Z,20.8
2019-03-18T17:35:11.000Z,20.8
2019-03-18T17:45:11.000Z,20.8
2019-03-18T17:55:11.000Z,20.8
2019-03-18T18:05:11.000Z,20.8
2019-03-18T18:15:12.000Z,20.9
2019-03-18T18:25:11.000Z,20.9
2019-03-18T18:35:11.000Z,20.8
2019-03-18T18:45:12.000Z,20.8
2019-03-18T18:55:11.000Z,20.9
2019-03-18T19:05:11.000Z,20.8
2019-03-18T19:15:11.000Z,20.8
2019-03-18T19:25:11.000Z,20.7
2019-03-18T19:35:11.000Z,20.6
2019-03-18T19:45:13.000Z,20.7
2019-03-18T19:55:14.000Z,20.7
2019-03-18T20:05:14.000Z,20.7
2019-03-18T20:15:11.000Z,20.7
2019-03-18T20:25:11.000Z,20.8
2019-03-18T20:35:11.000Z,20.7
2019-03-18T20:45:11.000Z,20.7
2019-03-18T20:55:12.000Z,20.7
2019-03-18T21:05:13.000Z,20.7
2019-03-18T21:15:11.000Z,20.7
2019-03-18T21:25:11.000Z,20.7
2019-03-18T21:35:12.000Z,20.7
2019-03-18T21:45:12.000Z,20.7
2019-03-18T21:55:12.000Z,20.7
2019-03-18T22:05:12.000Z,20.7
2019-03-18T22:15:12.000Z,20.7
2019-03-18T22:25:12.000Z,20.7
2019-03-18T22:35:12.000Z,20.6
2019-03-18T22:45:13.000Z,18.9
2019-03-18T22:55:12.000Z,17.9
2019-03-18T23:05:12.000Z,17.5
2019-03-18T23:15:12.000Z,17.2
2019-03-18T23:25:12.000Z,17
2019-03-18T23:35:13.000Z,16.8
2019-03-18T23:45:12.000Z,16.5
2019-03-18T23:55:12.000Z,16.5
